Time;durP1;ratioP1;P1;durP2;ratioP2;P2;SDS_P1;SDS_P2;PMS_P1;PMS_P2;Temp;Humidity;BMP_temperature;BMP_pressure;BME280_temperature;BME280_humidity;BME280_pressure;Samples;Min_cycle;Max_cycle;Signal;HPM_P1;HPM_P2
2021/05/15 00:00:23;;;;;;;;;;;;;;;11.30;83.18;97500.79;1717058;83;24752;-88
2021/05/15 00:02:52;;;;;;;;;;;;;;;11.28;83.13;97500.59;1712574;83;20219;-89
2021/05/15 00:05:18;;;;;;;;;;;;;;;11.26;83.09;97507.75;1716597;82;26749;-89
2021/05/15 00:07:44;;;;;;;;;;;;;;;11.21;83.08;97507.32;1714225;82;20666;-90
2021/05/15 00:10:10;;;;;;;;;;;;;;;11.16;83.04;97503.80;1718210;83;20323;-88
2021/05/15 00:12:36;;;;;;;;;;;;;;;11.13;83.01;97507.98;1694864;82;24789;-89
2021/05/15 00:15:04;;;;;;;;;;;;;;;11.11;83.00;97506.47;1675516;83;21976;-89
2021/05/15 00:17:30;;;;;;;;;;;;;;;11.07;82.97;97501.98;1677729;83;25955;-90
2021/05/15 00:19:56;;;;;;;;;;;;;;;11.02;82.96;97500.22;1666753;83;20339;-89
2021/05/15 00:22:22;;;;;;;;;;;;;;;11.01;82.96;97504.30;1675064;84;20350;-89
2021/05/15 00:24:48;;;;;;;;;;;;;;;10.99;82.96;97504.42;1651441;84;24649;-89
2021/05/15 00:27:14;;;;;;;;;;;;;;;10.98;82.94;97509.31;1669558;84;22071;-89
2021/05/15 00:29:40;;;;;;;;;;;;;;;10.92;82.93;97505.91;1670401;84;21080;-89
2021/05/15 00:32:06;;;;;;;;;;;;;;;10.92;82.91;97511.14;1673734;84;25121;-88
2021/05/15 00:34:32;;;;;;;;;;;;;;;10.94;82.92;97514.47;1680185;84;20225;-89
2021/05/15 00:36:59;;;;;;;;;;;;;;;10.92;82.91;97513.77;1679584;83;24780;-89
2021/05/15 00:39:30;;;;;;;;;;;;;;;10.87;82.90;97514.64;1682453;84;22646;-89
2021/05/15 00:41:56;;;;;;;;;;;;;;;10.85;82.89;97516.58;1673829;84;25945;-89
2021/05/15 00:44:42;;;;;;;;;;;;;;;10.81;82.86;97521.70;1679752;84;20245;-89
2021/05/15 00:46:56;;;;;;;;;;;;;;;10.76;82.87;97513.41;1681140;84;20256;-88
2021/05/15 00:49:22;;;;;;;;;;;;;;;10.73;82.86;97521.54;1673632;84;20320;-89
2021/05/15 00:51:49;;;;;;;;;;;;;;;10.71;82.85;97519.05;1670352;83;21936;-89
2021/05/15 00:54:15;;;;;;;;;;;;;;;10.67;82.85;97520.27;1674839;83;26031;-89
2021/05/15 00:56:41;;;;;;;;;;;;;;;10.65;82.84;97521.34;1667956;84;20372;-89
2021/05/15 00:59:10;;;;;;;;;;;;;;;10.64;82.83;97527.05;1670052;84;20249;-88
2021/05/15 01:01:36;;;;;;;;;;;;;;;10.63;82.85;97525.90;1672071;84;25034;-88
2021/05/15 01:04:02;;;;;;;;;;;;;;;10.61;82.84;97523.87;1673481;83;21983;-89
2021/05/15 01:06:28;;;;;;;;;;;;;;;10.57;82.84;97527.24;1676599;84;26153;-89
2021/05/15 01:08:54;;;;;;;;;;;;;;;10.57;82.84;97526.41;1673296;83;24510;-89
2021/05/15 01:11:21;;;;;;;;;;;;;;;10.56;82.85;97524.75;1674378;84;20359;-88
2021/05/15 01:13:51;;;;;;;;;;;;;;;10.59;82.86;97529.70;1696077;83;24957;-88
2021/05/15 01:16:17;;;;;;;;;;;;;;;10.59;82.86;97527.09;1702584;83;21934;-88
2021/05/15 01:18:43;;;;;;;;;;;;;;;10.59;82.87;97529.23;1701894;83;26173;-88
2021/05/15 01:21:09;;;;;;;;;;;;;;;10.59;82.88;97521.86;1705230;83;20321;-88
2021/05/15 01:23:36;;;;;;;;;;;;;;;10.58;82.88;97521.53;1696318;83;20261;-88
2021/05/15 01:26:12;;;;;;;;;;;;;;;10.57;82.88;97522.02;1700776;83;25008;-88
2021/05/15 01:28:44;;;;;;;;;;;;;;;10.54;82.87;97526.17;1704181;83;22348;-88
2021/05/15 01:31:12;;;;;;;;;;;;;;;10.47;82.87;97525.86;1696717;83;25337;-88
2021/05/15 01:33:37;;;;;;;;;;;;;;;10.43;82.84;97523.63;1708467;82;23887;-88
2021/05/15 01:36:04;;;;;;;;;;;;;;;10.37;82.83;97522.36;1704770;83;20776;-88
2021/05/15 01:38:35;;;;;;;;;;;;;;;10.34;82.82;97520.01;1694904;83;24841;-88
2021/05/15 01:41:03;;;;;;;;;;;;;;;10.29;82.80;97521.34;1704380;83;21884;-88
2021/05/15 01:43:29;;;;;;;;;;;;;;;10.27;82.81;97518.85;1699231;83;25960;-88
2021/05/15 01:45:56;;;;;;;;;;;;;;;10.22;82.82;97515.80;1701068;83;24440;-88
2021/05/15 01:48:22;;;;;;;;;;;;;;;10.19;82.86;97518.67;1703348;82;20531;-88
2021/05/15 01:53:38;;;;;;;;;;;;;;;10.23;82.88;97521.86;1701866;83;22019;-88
2021/05/15 01:56:05;;;;;;;;;;;;;;;10.20;82.89;97518.20;1703554;83;25869;-88
2021/05/15 01:58:34;;;;;;;;;;;;;;;10.20;82.92;97522.92;1700254;83;23991;-88
2021/05/15 02:01:00;;;;;;;;;;;;;;;10.24;82.95;97518.29;1699456;83;20303;-88
2021/05/15 02:03:26;;;;;;;;;;;;;;;10.21;82.97;97521.97;1703718;83;24845;-88
2021/05/15 02:05:53;;;;;;;;;;;;;;;10.20;82.98;97524.23;1693165;83;21889;-88
2021/05/15 02:08:22;;;;;;;;;;;;;;;10.18;83.01;97523.55;1699707;83;26005;-88
2021/05/15 02:10:49;;;;;;;;;;;;;;;10.17;83.01;97520.58;1700616;83;24287;-88
2021/05/15 02:16:12;;;;;;;;;;;;;;;10.14;83.04;97514.28;1700959;83;20921;-87
2021/05/15 02:18:41;;;;;;;;;;;;;;;10.13;83.05;97513.09;1705388;83;22149;-88
2021/05/15 02:21:07;;;;;;;;;;;;;;;10.10;83.08;97512.84;1706914;82;21193;-88
2021/05/15 02:23:34;;;;;;;;;;;;;;;10.07;83.10;97522.27;1713227;83;24468;-88
2021/05/15 02:26:00;;;;;;;;;;;;;;;10.07;83.11;97518.34;1698404;83;20298;-88
2021/05/15 02:28:26;;;;;;;;;;;;;;;10.06;83.09;97520.59;1701485;83;24837;-88
2021/05/15 02:30:55;;;;;;;;;;;;;;;10.05;83.12;97522.38;1707392;82;20319;-88
2021/05/15 02:33:20;;;;;;;;;;;;;;;10.04;83.11;97519.88;1702584;83;26185;-88
2021/05/15 02:35:47;;;;;;;;;;;;;;;10.02;83.13;97520.51;1704253;83;24414;-88
2021/05/15 02:38:19;;;;;;;;;;;;;;;10.05;83.14;97515.84;1701372;83;20708;-88
2021/05/15 02:40:48;;;;;;;;;;;;;;;10.08;83.13;97527.38;1710021;83;24743;-88
2021/05/15 02:43:14;;;;;;;;;;;;;;;10.07;83.15;97522.27;1701172;83;22108;-88
2021/05/15 02:45:40;;;;;;;;;;;;;;;10.02;83.18;97524.43;1709487;83;26021;-88
2021/05/15 02:48:08;;;;;;;;;;;;;;;9.99;83.19;97527.27;1708741;83;25237;-88
2021/05/15 02:50:35;;;;;;;;;;;;;;;10.00;83.17;97524.55;1696101;83;20195;-88
2021/05/15 02:53:01;;;;;;;;;;;;;;;9.96;83.21;97523.63;1693954;83;24787;-88
2021/05/15 02:55:28;;;;;;;;;;;;;;;9.88;83.20;97520.79;1707319;83;21986;-87
2021/05/15 02:57:54;;;;;;;;;;;;;;;9.89;83.21;97528.98;1702953;83;20938;-88
2021/05/15 03:00:22;;;;;;;;;;;;;;;9.89;83.22;97523.28;1699971;83;24444;-88
2021/05/15 03:02:55;;;;;;;;;;;;;;;9.90;83.19;97524.12;1707951;83;20244;-88
2021/05/15 03:05:31;;;;;;;;;;;;;;;9.93;83.21;97527.30;1705863;83;24874;-88
2021/05/15 03:08:00;;;;;;;;;;;;;;;9.90;83.24;97523.64;1700815;82;22051;-88
2021/05/15 03:10:34;;;;;;;;;;;;;;;9.84;83.24;97524.14;1707588;83;25443;-88
2021/05/15 03:13:12;;;;;;;;;;;;;;;9.83;83.25;97530.31;1701408;83;25160;-88
2021/05/15 03:15:39;;;;;;;;;;;;;;;9.88;83.27;97529.94;1680131;84;20580;-88
2021/05/15 03:18:05;;;;;;;;;;;;;;;9.87;83.29;97529.10;1670527;85;24965;-87
2021/05/15 03:20:31;;;;;;;;;;;;;;;9.91;83.30;97530.53;1671651;85;20805;-87
2021/05/15 03:23:01;;;;;;;;;;;;;;;9.95;83.29;97535.02;1673415;84;25969;-87
2021/05/15 03:25:25;;;;;;;;;;;;;;;9.97;83.31;97539.66;1668350;85;24981;-87
2021/05/15 03:27:51;;;;;;;;;;;;;;;9.96;83.35;97539.30;1670146;85;20219;-88
2021/05/15 03:30:17;;;;;;;;;;;;;;;9.97;83.35;97542.27;1671234;84;20364;-88
2021/05/15 03:32:44;;;;;;;;;;;;;;;9.99;83.36;97537.73;1671613;84;21953;-88
2021/05/15 03:35:11;;;;;;;;;;;;;;;9.98;83.37;97542.62;1672070;85;26004;-88
2021/05/15 03:37:37;;;;;;;;;;;;;;;9.98;83.39;97538.20;1668971;85;24546;-88
2021/05/15 03:40:03;;;;;;;;;;;;;;;9.99;83.41;97536.42;1670955;84;20235;-88
2021/05/15 03:42:29;;;;;;;;;;;;;;;10.01;83.37;97534.53;1670745;85;24789;-88
2021/05/15 03:44:55;;;;;;;;;;;;;;;10.02;83.39;97534.88;1672709;85;22034;-87
2021/05/15 03:47:21;;;;;;;;;;;;;;;10.00;83.41;97532.86;1671303;85;21042;-88
2021/05/15 03:49:47;;;;;;;;;;;;;;;9.98;83.41;97529.56;1671436;85;20417;-87
2021/05/15 03:52:14;;;;;;;;;;;;;;;9.99;83.41;97530.72;1671293;84;20581;-88
2021/05/15 03:54:40;;;;;;;;;;;;;;;10.02;83.42;97527.88;1671704;84;24874;-87
2021/05/15 03:57:06;;;;;;;;;;;;;;;10.02;83.42;97536.19;1675112;84;20338;-87
2021/05/15 03:59:32;;;;;;;;;;;;;;;10.03;83.46;97536.55;1671227;84;20874;-88
2021/05/15 04:01:58;;;;;;;;;;;;;;;10.07;83.46;97534.86;1672244;85;24435;-88
2021/05/15 04:04:24;;;;;;;;;;;;;;;10.12;83.48;97533.17;1670599;84;20333;-88
2021/05/15 04:06:50;;;;;;;;;;;;;;;10.07;83.49;97524.41;1671580;85;24757;-88
2021/05/15 04:09:17;;;;;;;;;;;;;;;10.18;83.51;97543.16;1673312;84;22101;-88
2021/05/15 04:11:43;;;;;;;;;;;;;;;10.17;83.51;97536.27;1671617;84;21183;-88
2021/05/15 04:17:12;;;;;;;;;;;;;;;10.20;83.51;97548.27;1665706;85;20332;-88
2021/05/15 04:19:27;;;;;;;;;;;;;;;10.18;83.52;97545.77;1646671;85;24752;-87
2021/05/15 04:21:54;;;;;;;;;;;;;;;10.24;83.54;97545.27;1652048;85;21994;-88
2021/05/15 04:24:26;;;;;;;;;;;;;;;10.31;83.55;97552.14;1657029;85;25942;-88
2021/05/15 04:26:54;;;;;;;;;;;;;;;10.35;83.58;97551.75;1658375;85;24532;-88
2021/05/15 04:29:26;;;;;;;;;;;;;;;10.42;83.62;97550.27;1654907;85;20636;-88
2021/05/15 04:31:57;;;;;;;;;;;;;;;10.47;83.65;97551.22;1625955;85;24721;-88
2021/05/15 04:34:21;;;;;;;;;;;;;;;10.46;83.69;97556.09;1635337;87;22059;-89
2021/05/15 04:36:47;;;;;;;;;;;;;;;10.54;83.71;97552.81;1615468;87;25970;-88
2021/05/15 04:39:13;;;;;;;;;;;;;;;10.67;83.73;97549.05;1607148;86;20436;-88
2021/05/15 04:41:39;;;;;;;;;;;;;;;10.82;83.81;97555.60;1596835;88;20359;-88
2021/05/15 04:44:05;;;;;;;;;;;;;;;10.95;83.87;97561.94;1667535;84;24776;-88
2021/05/15 04:46:32;;;;;;;;;;;;;;;11.09;83.91;97555.52;1662675;85;22113;-88
2021/05/15 04:48:58;;;;;;;;;;;;;;;11.19;83.94;97548.52;1660555;85;25941;-88
2021/05/15 04:51:24;;;;;;;;;;;;;;;11.29;84.00;97543.66;1660247;85;24392;-89
2021/05/15 04:53:50;;;;;;;;;;;;;;;11.38;84.01;97554.31;1660479;84;20647;-88
2021/05/15 04:56:16;;;;;;;;;;;;;;;11.48;84.02;97551.23;1659951;85;20253;-89
2021/05/15 04:58:42;;;;;;;;;;;;;;;11.56;84.05;97542.23;1664235;84;22071;-86
2021/05/15 05:01:10;;;;;;;;;;;;;;;11.63;84.05;97549.88;1667172;84;26139;-86
2021/05/15 05:03:37;;;;;;;;;;;;;;;11.74;84.04;97549.80;1665807;85;24388;-86
2021/05/15 05:06:03;;;;;;;;;;;;;;;11.87;84.04;97557.41;1665543;84;20531;-86
2021/05/15 05:08:29;;;;;;;;;;;;;;;11.98;84.06;97548.94;1662460;85;24850;-86
2021/05/15 05:10:55;;;;;;;;;;;;;;;12.08;84.05;97558.94;1663213;84;22252;-86
2021/05/15 05:13:24;;;;;;;;;;;;;;;12.24;84.06;97564.11;1660473;84;21187;-86
2021/05/15 05:15:49;;;;;;;;;;;;;;;12.31;84.05;97563.42;1673463;83;24550;-86
2021/05/15 05:18:15;;;;;;;;;;;;;;;12.39;84.04;97569.27;1691973;83;20357;-86
2021/05/15 05:20:41;;;;;;;;;;;;;;;12.52;84.00;97572.45;1682258;84;24772;-86
2021/05/15 05:23:07;;;;;;;;;;;;;;;12.62;83.99;97567.17;1685206;83;20290;-86
2021/05/15 05:25:38;;;;;;;;;;;;;;;12.67;83.96;97575.45;1703375;83;21520;-86
2021/05/15 05:28:04;;;;;;;;;;;;;;;12.73;83.91;97580.14;1684482;83;24398;-86
2021/05/15 05:30:30;;;;;;;;;;;;;;;12.78;83.85;97577.44;1682539;83;20404;-86
2021/05/15 05:32:56;;;;;;;;;;;;;;;12.80;83.79;97578.14;1686058;84;20283;-85
2021/05/15 05:35:22;;;;;;;;;;;;;;;12.82;83.73;97578.00;1701482;83;22082;-86
2021/05/15 05:37:48;;;;;;;;;;;;;;;12.80;83.62;97584.70;1685979;83;20953;-87
2021/05/15 05:40:15;;;;;;;;;;;;;;;12.81;83.52;97583.73;1695434;84;24433;-86
2021/05/15 05:42:42;;;;;;;;;;;;;;;12.88;83.42;97574.78;1683715;84;20231;-86
2021/05/15 05:45:09;;;;;;;;;;;;;;;12.90;83.34;97584.19;1693971;84;24839;-87
2021/05/15 05:47:35;;;;;;;;;;;;;;;12.87;83.26;97575.27;1691231;84;21935;-86
2021/05/15 05:50:01;;;;;;;;;;;;;;;12.89;83.16;97583.84;1690006;83;25961;-86
2021/05/15 05:52:28;;;;;;;;;;;;;;;12.87;83.10;97585.77;1692235;83;24408;-86
2021/05/15 05:54:55;;;;;;;;;;;;;;;12.89;83.00;97584.32;1685587;83;20332;-86
2021/05/15 05:57:21;;;;;;;;;;;;;;;12.95;82.95;97589.01;1690020;84;24810;-88
2021/05/15 05:59:47;;;;;;;;;;;;;;;12.96;82.88;97591.50;1684068;84;20277;-87
2021/05/15 06:02:13;;;;;;;;;;;;;;;12.96;82.80;97591.50;1677515;84;21202;-87
2021/05/15 06:04:39;;;;;;;;;;;;;;;12.99;82.73;97594.31;1697003;83;25849;-88
2021/05/15 06:07:06;;;;;;;;;;;;;;;13.02;82.68;97597.16;1685186;83;20422;-87
2021/05/15 06:09:32;;;;;;;;;;;;;;;13.06;82.64;97599.83;1696034;83;24790;-88
2021/05/15 06:11:58;;;;;;;;;;;;;;;13.04;82.57;97594.70;1702627;83;22020;-88
2021/05/15 06:14:25;;;;;;;;;;;;;;;13.01;82.48;97597.63;1688168;84;25977;-88
2021/05/15 06:16:52;;;;;;;;;;;;;;;13.03;82.41;97602.27;1662712;83;24512;-87
2021/05/15 06:19:19;;;;;;;;;;;;;;;13.04;82.30;97595.22;1658145;85;20343;-88
2021/05/15 06:21:45;;;;;;;;;;;;;;;13.05;82.20;97598.17;1655473;86;24986;-88
2021/05/15 06:24:11;;;;;;;;;;;;;;;13.09;82.10;97601.67;1658031;86;20340;-88
2021/05/15 06:26:37;;;;;;;;;;;;;;;13.13;82.03;97603.58;1660376;86;26043;-88
2021/05/15 06:29:04;;;;;;;;;;;;;;;13.18;81.97;97604.80;1656103;86;24394;-88
2021/05/15 06:31:31;;;;;;;;;;;;;;;13.25;81.95;97605.06;1661979;85;20351;-88
2021/05/15 06:33:57;;;;;;;;;;;;;;;13.34;81.92;97605.02;1649748;86;24808;-87
2021/05/15 06:36:23;;;;;;;;;;;;;;;13.44;81.87;97608.09;1652334;85;21988;-87
2021/05/15 06:38:51;;;;;;;;;;;;;;;13.51;81.85;97606.05;1658419;84;26160;-87
2021/05/15 06:41:19;;;;;;;;;;;;;;;13.57;81.81;97605.48;1648945;86;24610;-88
2021/05/15 06:43:45;;;;;;;;;;;;;;;13.63;81.75;97606.22;1635952;86;20375;-88
2021/05/15 06:46:11;;;;;;;;;;;;;;;13.67;81.69;97605.42;1668996;85;24732;-88
2021/05/15 06:48:37;;;;;;;;;;;;;;;13.71;81.62;97608.92;1701406;83;20314;-88
2021/05/15 06:51:03;;;;;;;;;;;;;;;13.77;81.52;97612.28;1669169;85;25792;-88
2021/05/15 06:53:30;;;;;;;;;;;;;;;13.81;81.43;97603.12;1661717;86;20389;-89
2021/05/15 06:55:56;;;;;;;;;;;;;;;13.86;81.35;97599.20;1662718;85;20388;-88
2021/05/15 06:58:23;;;;;;;;;;;;;;;13.92;81.28;97607.34;1655872;86;20294;-88
2021/05/15 07:00:48;;;;;;;;;;;;;;;13.94;81.19;97608.03;1659393;86;22057;-89
2021/05/15 07:03:14;;;;;;;;;;;;;;;13.99;81.14;97607.58;1654042;86;21044;-88
2021/05/15 07:05:40;;;;;;;;;;;;;;;14.02;81.03;97605.98;1660036;86;24402;-89
2021/05/15 07:08:07;;;;;;;;;;;;;;;14.10;80.93;97602.94;1654846;85;20347;-90
2021/05/15 07:10:38;;;;;;;;;;;;;;;14.16;80.83;97596.25;1658332;86;25387;-89
2021/05/15 07:13:04;;;;;;;;;;;;;;;14.23;80.72;97602.58;1656458;86;22087;-89
2021/05/15 07:15:30;;;;;;;;;;;;;;;14.31;80.60;97601.32;1660323;84;26166;-89
2021/05/15 07:17:56;;;;;;;;;;;;;;;14.37;80.46;97603.39;1660974;85;20314;-89
2021/05/15 07:20:23;;;;;;;;;;;;;;;14.47;80.33;97600.18;1662812;85;20632;-89
2021/05/15 07:22:49;;;;;;;;;;;;;;;14.60;80.26;97604.58;1664602;85;24944;-88
2021/05/15 07:25:16;;;;;;;;;;;;;;;14.74;80.17;97604.99;1666120;85;20253;-89
2021/05/15 07:27:43;;;;;;;;;;;;;;;14.82;80.02;97606.39;1664613;85;25737;-89
2021/05/15 07:30:10;;;;;;;;;;;;;;;14.90;79.87;97611.70;1657031;85;24389;-89
2021/05/15 07:32:37;;;;;;;;;;;;;;;15.00;79.76;97617.72;1659381;85;20269;-89
2021/05/15 07:35:03;;;;;;;;;;;;;;;15.12;79.65;97619.09;1668001;85;20218;-89
2021/05/15 07:37:29;;;;;;;;;;;;;;;15.22;79.56;97613.73;1664483;84;21996;-87
2021/05/15 07:39:54;;;;;;;;;;;;;;;15.27;79.39;97618.05;1664524;85;21040;-86
2021/05/15 07:42:21;;;;;;;;;;;;;;;15.28;79.17;97610.45;1662092;85;24440;-88
2021/05/15 07:44:50;;;;;;;;;;;;;;;15.26;78.89;97611.95;1664061;84;20309;-89
2021/05/15 07:47:15;;;;;;;;;;;;;;;15.33;78.68;97610.80;1661367;85;25538;-88
2021/05/15 07:49:41;;;;;;;;;;;;;;;15.35;78.47;97611.00;1642026;85;20265;-89
2021/05/15 07:52:07;;;;;;;;;;;;;;;15.44;78.28;97611.85;1658414;85;26159;-88
2021/05/15 07:54:34;;;;;;;;;;;;;;;15.51;78.09;97616.84;1658641;85;24417;-88
2021/05/15 07:57:00;;;;;;;;;;;;;;;15.57;77.91;97617.56;1664268;85;20673;-88
2021/05/15 07:59:27;;;;;;;;;;;;;;;15.65;77.73;97619.42;1665264;85;20292;-88
2021/05/15 08:01:53;;;;;;;;;;;;;;;15.64;77.52;97609.84;1662699;85;22054;-89
2021/05/15 08:04:25;;;;;;;;;;;;;;;15.68;77.32;97613.32;1656696;85;25972;-88
2021/05/15 08:06:52;;;;;;;;;;;;;;;15.76;77.14;97609.91;1671280;85;24711;-88
2021/05/15 08:09:18;;;;;;;;;;;;;;;15.82;76.93;97609.23;1643754;86;20524;-88
2021/05/15 08:11:44;;;;;;;;;;;;;;;15.85;76.73;97604.98;1666746;85;24777;-88
2021/05/15 08:14:11;;;;;;;;;;;;;;;15.95;76.52;97610.94;1656193;85;21999;-88
2021/05/15 08:16:36;;;;;;;;;;;;;;;16.08;76.35;97614.45;1683781;82;21015;-88
2021/05/15 08:19:03;;;;;;;;;;;;;;;16.13;76.20;97621.38;1699682;83;25112;-88
2021/05/15 08:21:31;;;;;;;;;;;;;;;16.21;76.08;97624.02;1726365;82;20358;-88
2021/05/15 08:23:58;;;;;;;;;;;;;;;16.26;75.87;97615.95;1724188;82;25045;-88
2021/05/15 08:26:26;;;;;;;;;;;;;;;16.31;75.64;97620.73;1722124;82;21961;-88
2021/05/15 08:28:53;;;;;;;;;;;;;;;16.39;75.47;97618.13;1677380;84;26112;-87
2021/05/15 08:31:21;;;;;;;;;;;;;;;16.49;75.31;97616.15;1721164;83;24411;-88
2021/05/15 08:33:47;;;;;;;;;;;;;;;16.57;75.13;97619.30;1712498;82;20329;-87
2021/05/15 08:36:13;;;;;;;;;;;;;;;16.51;74.90;97619.46;1721847;83;24833;-88
2021/05/15 08:38:39;;;;;;;;;;;;;;;16.46;74.57;97619.62;1724847;83;21954;-88
2021/05/15 08:41:07;;;;;;;;;;;;;;;16.50;74.29;97619.62;1714999;83;26097;-88
2021/05/15 08:43:41;;;;;;;;;;;;;;;16.51;74.02;97617.31;1716322;83;24538;-88
2021/05/15 08:46:13;;;;;;;;;;;;;;;16.56;73.79;97621.61;1708608;83;20196;-87
2021/05/15 08:48:39;;;;;;;;;;;;;;;16.63;73.62;97622.64;1713098;83;24771;-87
2021/05/15 08:51:06;;;;;;;;;;;;;;;16.73;73.43;97623.30;1710039;83;21979;-88
2021/05/15 08:53:32;;;;;;;;;;;;;;;16.86;73.29;97624.93;1712298;82;25936;-88
2021/05/15 08:55:58;;;;;;;;;;;;;;;16.99;73.13;97623.94;1712867;81;25010;-88
2021/05/15 08:58:24;;;;;;;;;;;;;;;17.04;72.88;97625.58;1726877;82;20613;-88
2021/05/15 09:00:51;;;;;;;;;;;;;;;17.12;72.57;97624.76;1715939;82;20236;-88
2021/05/15 09:03:18;;;;;;;;;;;;;;;17.20;72.35;97624.73;1720596;82;22094;-88
2021/05/15 09:05:50;;;;;;;;;;;;;;;17.21;72.12;97620.27;1711079;83;26017;-88
2021/05/15 09:08:16;;;;;;;;;;;;;;;17.18;71.77;97620.12;1712382;83;24600;-88
2021/05/15 09:10:44;;;;;;;;;;;;;;;17.09;71.39;97625.91;1714859;82;20642;-88
2021/05/15 09:13:12;;;;;;;;;;;;;;;17.08;71.11;97620.28;1700056;83;24866;-88
2021/05/15 09:15:39;;;;;;;;;;;;;;;17.14;70.85;97616.97;1714990;83;21952;-88
2021/05/15 09:18:14;;;;;;;;;;;;;;;17.24;70.62;97612.02;1675125;84;25969;-88
2021/05/15 09:20:40;;;;;;;;;;;;;;;17.31;70.45;97605.86;1681996;84;24465;-88
2021/05/15 09:23:11;;;;;;;;;;;;;;;17.38;70.29;97606.02;1683955;83;20344;-88
2021/05/15 09:25:37;;;;;;;;;;;;;;;17.49;70.15;97613.09;1676218;84;24779;-88
2021/05/15 09:28:03;;;;;;;;;;;;;;;17.60;70.00;97607.13;1680714;85;21965;-88
2021/05/15 09:30:30;;;;;;;;;;;;;;;17.62;69.82;97609.13;1681607;84;25960;-88
2021/05/15 09:32:58;;;;;;;;;;;;;;;17.58;69.51;97617.34;1677249;84;24446;-88
2021/05/15 09:35:28;;;;;;;;;;;;;;;17.60;69.25;97606.64;1694898;83;20235;-88
2021/05/15 09:37:53;;;;;;;;;;;;;;;17.70;68.96;97611.72;1680359;83;24851;-88
2021/05/15 09:40:21;;;;;;;;;;;;;;;17.81;68.74;97615.31;1688477;84;22043;-89
2021/05/15 09:42:49;;;;;;;;;;;;;;;17.89;68.52;97608.67;1683819;84;25432;-90
2021/05/15 09:45:29;;;;;;;;;;;;;;;17.99;68.26;97606.63;1695762;83;24576;-90
2021/05/15 09:48:09;;;;;;;;;;;;;;;18.12;67.97;97605.55;1684851;84;20217;-91
2021/05/15 09:50:36;;;;;;;;;;;;;;;18.19;67.69;97599.05;1695231;82;24806;-90
2021/05/15 09:53:15;;;;;;;;;;;;;;;18.26;67.44;97596.04;1690913;84;22685;-89
2021/05/15 09:55:47;;;;;;;;;;;;;;;18.37;67.13;97597.78;1677079;83;25896;-90
2021/05/15 09:58:15;;;;;;;;;;;;;;;18.43;66.84;97592.78;1685161;83;24512;-91
2021/05/15 10:00:43;;;;;;;;;;;;;;;18.44;66.61;97594.44;1688369;84;20326;-90
2021/05/15 10:03:14;;;;;;;;;;;;;;;18.46;66.44;97593.73;1676928;84;24810;-89
2021/05/15 10:05:40;;;;;;;;;;;;;;;18.42;66.14;97591.13;1674616;84;22088;-89
2021/05/15 10:08:07;;;;;;;;;;;;;;;18.40;65.91;97591.30;1697702;83;21253;-89
2021/05/15 10:10:33;;;;;;;;;;;;;;;18.37;65.71;97591.16;1690957;82;24414;-90
2021/05/15 10:13:00;;;;;;;;;;;;;;;18.51;65.60;97580.78;1685544;84;20266;-90
2021/05/15 10:15:26;;;;;;;;;;;;;;;18.62;65.52;97577.24;1685823;83;24875;-90
2021/05/15 10:17:52;;;;;;;;;;;;;;;18.64;65.29;97577.07;1684081;84;21945;-89
2021/05/15 10:20:21;;;;;;;;;;;;;;;18.65;65.05;97574.75;1693522;84;25963;-91
2021/05/15 10:22:50;;;;;;;;;;;;;;;18.76;64.88;97572.47;1693867;84;25186;-89
2021/05/15 10:25:16;;;;;;;;;;;;;;;18.90;64.77;97574.02;1690446;83;20585;-90
2021/05/15 10:27:43;;;;;;;;;;;;;;;18.99;64.64;97571.59;1694027;83;25006;-90
2021/05/15 10:30:13;;;;;;;;;;;;;;;19.07;64.40;97567.05;1686410;82;22090;-90
2021/05/15 10:32:53;;;;;;;;;;;;;;;19.19;64.15;97566.10;1688720;84;26485;-90
2021/05/15 10:35:30;;;;;;;;;;;;;;;19.30;63.84;97564.33;1705166;82;24515;-90
2021/05/15 10:38:10;;;;;;;;;;;;;;;19.39;63.51;97559.73;1692605;83;20897;-90
2021/05/15 10:40:47;;;;;;;;;;;;;;;19.46;63.28;97560.19;1698747;84;25648;-90
2021/05/15 10:43:14;;;;;;;;;;;;;;;19.54;63.09;97554.77;1690099;84;21943;-90
2021/05/15 10:45:41;;;;;;;;;;;;;;;19.64;62.93;97555.80;1690802;84;25983;-90
2021/05/15 10:48:23;;;;;;;;;;;;;;;19.61;62.67;97543.73;1687079;83;24434;-91
2021/05/15 10:50:52;;;;;;;;;;;;;;;19.69;62.38;97547.30;1699192;84;20513;-90
2021/05/15 10:53:18;;;;;;;;;;;;;;;19.76;62.13;97551.66;1694372;83;24738;-91
2021/05/15 10:55:46;;;;;;;;;;;;;;;19.81;61.77;97549.27;1696862;83;22105;-89
2021/05/15 10:58:13;;;;;;;;;;;;;;;19.84;61.55;97542.27;1693043;84;26682;-90
2021/05/15 11:00:40;;;;;;;;;;;;;;;19.95;61.37;97531.16;1687364;83;24444;-90
2021/05/15 11:03:06;;;;;;;;;;;;;;;20.08;61.07;97537.09;1698564;83;20229;-90
2021/05/15 11:05:45;;;;;;;;;;;;;;;20.13;60.77;97528.59;1690997;84;24833;-90
2021/05/15 11:08:21;;;;;;;;;;;;;;;20.18;60.45;97527.02;1689741;84;22285;-89
2021/05/15 11:10:50;;;;;;;;;;;;;;;20.27;60.18;97529.02;1696394;84;25934;-90
2021/05/15 11:13:16;;;;;;;;;;;;;;;20.31;59.83;97530.28;1698796;83;24385;-90
2021/05/15 11:15:43;;;;;;;;;;;;;;;20.37;59.53;97527.72;1693532;83;20337;-90
2021/05/15 11:18:09;;;;;;;;;;;;;;;20.45;59.37;97530.27;1696150;83;24941;-90
2021/05/15 11:20:43;;;;;;;;;;;;;;;20.41;59.03;97526.31;1698374;83;22123;-89
2021/05/15 11:23:11;;;;;;;;;;;;;;;20.36;58.77;97521.26;1647525;85;25936;-89
2021/05/15 11:25:39;;;;;;;;;;;;;;;20.30;58.43;97527.30;1657745;84;24426;-89
2021/05/15 11:28:08;;;;;;;;;;;;;;;20.31;58.35;97519.18;1662793;84;20369;-89
2021/05/15 11:30:36;;;;;;;;;;;;;;;20.28;58.20;97520.87;1670338;84;25952;-90
2021/05/15 11:33:11;;;;;;;;;;;;;;;20.23;58.06;97512.65;1671877;84;22129;-90
2021/05/15 11:35:47;;;;;;;;;;;;;;;20.22;57.88;97503.03;1659645;84;25991;-89
2021/05/15 11:38:15;;;;;;;;;;;;;;;20.09;57.60;97502.89;1657161;84;24582;-89
2021/05/15 11:40:47;;;;;;;;;;;;;;;19.97;57.35;97499.91;1638098;85;20758;-89
2021/05/15 11:43:23;;;;;;;;;;;;;;;19.90;57.16;97500.37;1659712;83;24849;-90
2021/05/15 11:45:50;;;;;;;;;;;;;;;19.91;57.12;97499.86;1639575;85;22096;-92
2021/05/15 11:48:25;;;;;;;;;;;;;;;19.92;57.04;97494.84;1650006;85;25973;-91
2021/05/15 11:51:04;;;;;;;;;;;;;;;19.89;56.90;97488.59;1669573;83;21050;-91
2021/05/15 11:53:38;;;;;;;;;;;;;;;19.89;56.63;97492.08;1670894;83;20272;-91
2021/05/15 11:56:11;;;;;;;;;;;;;;;19.96;56.63;97492.16;1666939;84;24759;-89
2021/05/15 11:58:51;;;;;;;;;;;;;;;20.01;56.54;97493.73;1659659;84;22036;-89
2021/05/15 12:01:21;;;;;;;;;;;;;;;20.02;56.35;97482.89;1654649;84;25965;-88
2021/05/15 12:03:47;;;;;;;;;;;;;;;20.09;56.24;97478.98;1648437;86;24525;-89
2021/05/15 12:06:14;;;;;;;;;;;;;;;20.16;56.20;97470.58;1637745;86;20271;-89
2021/05/15 12:08:41;;;;;;;;;;;;;;;20.18;55.83;97470.39;1662106;84;24781;-90
2021/05/15 12:11:07;;;;;;;;;;;;;;;20.11;55.57;97471.66;1669099;84;22073;-89
2021/05/15 12:13:33;;;;;;;;;;;;;;;20.12;55.44;97471.98;1635139;85;25934;-89
2021/05/15 12:16:01;;;;;;;;;;;;;;;20.08;55.34;97473.34;1659249;84;20432;-90
2021/05/15 12:18:28;;;;;;;;;;;;;;;20.15;55.34;97464.94;1682073;83;20319;-90
2021/05/15 12:20:59;;;;;;;;;;;;;;;20.18;55.16;97463.75;1694828;83;24901;-90
2021/05/15 12:23:26;;;;;;;;;;;;;;;20.23;55.06;97467.48;1695265;83;22246;-89
2021/05/15 12:25:57;;;;;;;;;;;;;;;20.25;54.91;97458.79;1682344;83;26094;-90
2021/05/15 12:28:25;;;;;;;;;;;;;;;20.20;54.72;97448.42;1652668;84;25232;-90
2021/05/15 12:30:52;;;;;;;;;;;;;;;20.06;54.44;97450.16;1673946;84;20259;-90
2021/05/15 12:33:19;;;;;;;;;;;;;;;20.02;54.30;97456.84;1669952;84;24900;-90
2021/05/15 12:36:07;;;;;;;;;;;;;;;19.81;53.89;97453.68;1711501;83;21433;-89
2021/05/15 12:38:35;;;;;;;;;;;;;;;19.72;53.65;97446.03;1702451;83;26060;-89
2021/05/15 12:41:05;;;;;;;;;;;;;;;19.60;53.34;97453.16;1706260;83;25290;-90
2021/05/15 12:43:31;;;;;;;;;;;;;;;19.56;53.11;97441.28;1712224;83;20585;-90
2021/05/15 12:45:59;;;;;;;;;;;;;;;19.61;52.98;97443.37;1717491;83;24778;-90
2021/05/15 12:48:40;;;;;;;;;;;;;;;19.60;52.78;97439.89;1723273;83;22965;-90
2021/05/15 12:51:13;;;;;;;;;;;;;;;19.63;52.68;97440.86;1715633;83;25996;-90
2021/05/15 12:53:39;;;;;;;;;;;;;;;19.76;52.58;97434.84;1712787;83;24505;-90
2021/05/15 12:56:12;;;;;;;;;;;;;;;19.76;52.39;97426.88;1714824;82;20240;-91
2021/05/15 12:58:41;;;;;;;;;;;;;;;19.71;52.15;97421.81;1714684;83;24761;-90